Time;durP1;ratioP1;P1;durP2;ratioP2;P2;SDS_P1;SDS_P2;PMS_P1;PMS_P2;Temp;Humidity;BMP_temperature;BMP_pressure;BME280_temperature;BME280_humidity;BME280_pressure;Samples;Min_cycle;Max_cycle;Signal;HPM_P1;HPM_P2
2022/06/24 00:01:16;;;;;;;12.18;6.95;;;;;;;22.55;96.11;100417.88;5057378;28;20435;-52
2022/06/24 00:04:04;;;;;;;11.98;6.38;;;;;;;22.48;96.95;100415.72;5063181;28;20052;-53
2022/06/24 00:06:51;;;;;;;14.73;6.35;;;;;;;22.36;97.37;100407.50;5071060;28;20106;-53
2022/06/24 00:09:40;;;;;;;14.32;7.38;;;;;;;22.25;98.68;100410.00;5073176;28;20040;-51
2022/06/24 00:12:27;;;;;;;11.85;6.65;;;;;;;22.17;100.00;100405.38;5061649;28;20098;-50
2022/06/24 00:15:23;;;;;;;13.70;6.45;;;;;;;22.17;99.97;100432.34;5078750;28;20045;-51
2022/06/24 00:18:17;;;;;;;15.43;6.25;;;;;;;22.26;99.73;100480.19;5074988;28;20049;-53
2022/06/24 00:21:12;;;;;;;14.10;6.75;;;;;;;22.34;98.63;100501.41;5068184;28;20048;-51
2022/06/24 00:23:59;;;;;;;13.13;6.03;;;;;;;22.35;97.56;100518.91;5067788;28;20052;-54
2022/06/24 00:26:47;;;;;;;12.18;5.00;;;;;;;22.34;94.08;100570.81;5068476;28;20135;-48
2022/06/24 00:29:35;;;;;;;11.20;4.70;;;;;;;22.37;92.53;100597.06;5059377;28;20449;-50
2022/06/24 00:32:33;;;;;;;9.00;4.70;;;;;;;22.40;91.72;100602.72;5063913;28;20040;-49
2022/06/24 00:35:21;;;;;;;11.00;5.00;;;;;;;22.41;91.86;100620.19;5074231;28;20044;-53
2022/06/24 00:38:25;;;;;;;8.63;4.55;;;;;;;22.40;90.43;100674.91;5073899;28;20480;-54
2022/06/24 00:41:13;;;;;;;10.88;4.85;;;;;;;22.42;91.13;100728.13;5070401;28;20048;-51
2022/06/24 00:44:03;;;;;;;15.07;5.85;;;;;;;22.40;93.12;100749.88;5075512;28;20052;-52
2022/06/24 00:46:52;;;;;;;14.05;7.20;;;;;;;22.34;95.55;100729.03;5067437;28;20041;-52
2022/06/24 00:49:40;;;;;;;16.30;7.50;;;;;;;22.27;96.71;100710.22;5058257;28;20045;-52
2022/06/24 00:52:27;;;;;;;16.25;8.65;;;;;;;22.18;98.11;100695.63;5072694;28;20036;-53
2022/06/24 00:55:29;;;;;;;14.52;8.80;;;;;;;22.09;99.46;100679.09;5069933;28;20052;-53
2022/06/24 00:58:18;;;;;;;18.75;10.30;;;;;;;22.03;100.00;100657.50;5070829;28;20048;-53
2022/06/24 01:01:05;;;;;;;15.18;9.75;;;;;;;21.95;100.00;100658.44;5055467;28;20494;-50
2022/06/24 01:03:55;;;;;;;11.65;5.72;;;;;;;21.76;95.72;100657.06;5063196;28;20435;-53
2022/06/24 01:06:44;;;;;;;8.43;4.38;;;;;;;21.61;93.91;100650.25;5069830;28;20044;-54
2022/06/24 01:09:32;;;;;;;8.57;4.03;;;;;;;21.51;93.94;100638.84;5070952;28;20403;-50
2022/06/24 01:12:19;;;;;;;7.13;3.53;;;;;;;21.43;92.48;100637.78;5071611;28;20052;-54
2022/06/24 01:15:07;;;;;;;8.82;3.30;;;;;;;21.29;91.79;100632.56;5071348;28;20048;-51
2022/06/24 01:17:55;;;;;;;6.72;3.00;;;;;;;21.17;91.68;100619.50;5046191;28;20079;-51
2022/06/24 01:20:43;;;;;;;6.35;2.75;;;;;;;21.09;91.21;100623.19;5073122;28;20045;-51
2022/06/24 01:23:31;;;;;;;5.10;2.50;;;;;;;21.02;89.62;100620.16;5074511;28;20123;-51
2022/06/24 01:26:19;;;;;;;4.68;2.40;;;;;;;20.94;90.10;100612.78;5066109;28;20044;-52
2022/06/24 01:29:07;;;;;;;4.63;2.17;;;;;;;20.89;89.58;100608.25;5073393;28;20056;-51
2022/06/24 01:31:55;;;;;;;4.40;1.98;;;;;;;20.88;88.00;100600.28;5069725;28;20048;-51
2022/06/24 01:34:42;;;;;;;5.00;2.10;;;;;;;20.85;88.40;100597.06;5073871;28;20051;-52
2022/06/24 01:37:30;;;;;;;4.10;2.00;;;;;;;20.84;88.84;100598.22;5070567;28;20380;-53
2022/06/24 01:40:18;;;;;;;6.40;2.17;;;;;;;20.89;88.79;100601.91;5066472;28;20063;-51
2022/06/24 01:43:05;;;;;;;5.75;1.80;;;;;;;20.92;87.75;100599.25;5063226;28;20040;-51
2022/06/24 01:45:53;;;;;;;3.92;1.80;;;;;;;20.92;87.49;100590.94;5072052;28;20037;-49
2022/06/24 01:48:40;;;;;;;3.85;1.60;;;;;;;20.87;87.89;100573.75;5069476;28;20132;-54
2022/06/24 01:51:28;;;;;;;3.10;1.60;;;;;;;20.85;88.07;100574.09;5061389;28;20138;-49
2022/06/24 01:54:16;;;;;;;4.55;1.73;;;;;;;20.82;88.00;100581.13;5076443;28;20055;-51
2022/06/24 01:57:04;;;;;;;7.70;2.45;;;;;;;20.70;87.87;100589.41;5080291;28;20053;-53
2022/06/24 01:59:52;;;;;;;3.00;2.00;;;;;;;20.68;89.37;100575.09;5060156;28;20041;-52
2022/06/24 02:02:40;;;;;;;5.88;2.10;;;;;;;20.71;89.77;100574.44;5050580;28;20056;-48
2022/06/24 02:05:32;;;;;;;2.78;1.42;;;;;;;20.76;90.12;100571.44;5070602;28;20048;-52
2022/06/24 02:08:19;;;;;;;3.78;1.88;;;;;;;20.78;89.67;100560.84;5047145;28;20048;-51
2022/06/24 02:14:14;;;;;;;5.15;2.03;;;;;;;20.78;89.60;100569.13;5067870;28;20045;-49
2022/06/24 02:17:02;;;;;;;4.28;1.80;;;;;;;20.78;89.67;100557.22;5057768;28;20052;-49
2022/06/24 02:19:49;;;;;;;5.05;2.05;;;;;;;20.79;89.11;100559.66;5067522;28;20045;-52
2022/06/24 02:22:37;;;;;;;4.22;1.90;;;;;;;20.78;89.40;100577.44;5066732;28;20057;-55
2022/06/24 02:25:25;;;;;;;5.40;2.25;;;;;;;20.80;89.59;100593.69;5059381;28;20052;-56
2022/06/24 02:28:13;;;;;;;4.40;2.10;;;;;;;20.82;89.89;100592.19;5067151;28;20499;-56
2022/06/24 02:31:03;;;;;;;3.92;2.00;;;;;;;20.85;90.04;100591.53;5071799;28;20049;-56
2022/06/24 02:33:51;;;;;;;4.57;1.80;;;;;;;20.87;90.18;100599.47;5066988;28;20041;-56
2022/06/24 02:36:38;;;;;;;5.40;2.00;;;;;;;20.87;89.78;100616.09;5072362;28;20045;-54
2022/06/24 02:39:26;;;;;;;7.50;2.10;;;;;;;20.87;89.97;100616.09;5071684;28;20045;-53
2022/06/24 02:42:13;;;;;;;4.50;1.75;;;;;;;20.89;90.24;100602.72;5062930;28;20048;-51
2022/06/24 02:45:01;;;;;;;8.18;2.33;;;;;;;20.90;89.45;100586.91;5071162;28;20052;-54
2022/06/24 02:47:48;;;;;;;3.10;1.63;;;;;;;20.78;88.40;100580.22;5054194;28;20068;-51
2022/06/24 02:50:41;;;;;;;5.18;1.90;;;;;;;20.53;88.83;100579.28;5070518;28;20045;-52
2022/06/24 02:53:20;;;;;;;3.88;1.70;;;;;;;20.36;91.34;100569.22;5076627;28;20593;-52
2022/06/24 02:56:13;;;;;;;5.22;2.13;;;;;;;20.26;92.94;100560.53;5060334;28;20091;-53
2022/06/24 02:59:01;;;;;;;6.70;2.15;;;;;;;20.22;94.34;100552.91;5061989;28;20060;-50
2022/06/24 03:01:48;;;;;;;4.43;2.10;;;;;;;20.29;93.88;100546.81;5073298;28;20407;-50
2022/06/24 03:04:36;;;;;;;2.72;1.88;;;;;;;20.34;93.52;100530.00;5051894;28;20061;-50
2022/06/24 03:07:24;;;;;;;3.63;1.88;;;;;;;20.34;93.43;100530.00;5072706;28;20087;-52
2022/06/24 03:10:11;;;;;;;3.08;2.10;;;;;;;20.35;92.25;100523.34;5045181;28;20045;-53
2022/06/24 03:12:59;;;;;;;5.30;1.83;;;;;;;20.30;92.64;100520.78;5068942;28;20048;-50
2022/06/24 03:15:48;;;;;;;4.38;1.63;;;;;;;20.32;91.72;100518.47;5072789;28;20510;-50
2022/06/24 03:18:36;;;;;;;2.88;1.95;;;;;;;20.31;91.90;100522.38;5066742;28;20083;-52
2022/06/24 03:21:23;;;;;;;4.07;2.45;;;;;;;20.31;91.90;100525.16;5067785;28;20049;-51
2022/06/24 03:24:11;;;;;;;3.15;2.03;;;;;;;20.30;92.79;100518.00;5071533;28;20514;-50
2022/06/24 03:26:58;;;;;;;2.88;1.90;;;;;;;20.34;92.42;100521.69;5071612;28;20044;-50
2022/06/24 03:29:47;;;;;;;4.43;2.00;;;;;;;20.35;92.25;100509.50;5064533;28;20059;-48
2022/06/24 03:32:35;;;;;;;4.75;2.03;;;;;;;20.34;92.00;100509.81;5072224;28;20045;-50
2022/06/24 03:35:22;;;;;;;3.00;2.15;;;;;;;20.32;91.99;100501.06;5072833;28;20055;-50
2022/06/24 03:38:10;;;;;;;4.03;2.17;;;;;;;20.30;92.21;100497.81;5063317;28;20052;-50
2022/06/24 03:40:57;;;;;;;5.90;2.20;;;;;;;20.29;92.74;100502.53;5061447;28;20098;-50
2022/06/24 03:43:45;;;;;;;3.13;1.83;;;;;;;20.20;93.17;100494.34;5072970;28;20040;-51
2022/06/24 03:46:32;;;;;;;4.20;2.25;;;;;;;20.10;93.77;100497.53;5065476;28;20045;-51
2022/06/24 03:49:20;;;;;;;4.45;2.40;;;;;;;19.95;94.60;100498.97;5059295;28;20052;-52
2022/06/24 03:52:08;;;;;;;3.45;2.15;;;;;;;19.89;96.11;100493.97;5064965;28;20048;-52
2022/06/24 03:54:56;;;;;;;5.18;2.83;;;;;;;19.90;96.22;100485.34;5074141;28;20407;-51
2022/06/24 03:57:43;;;;;;;5.63;2.58;;;;;;;19.94;95.89;100491.84;5074029;28;20048;-50
2022/06/24 04:00:32;;;;;;;5.78;2.75;;;;;;;19.99;95.97;100488.84;5074441;28;20040;-55
2022/06/24 04:03:19;;;;;;;3.88;2.40;;;;;;;20.07;95.41;100484.38;5074674;28;20056;-51
2022/06/24 04:06:07;;;;;;;3.88;2.47;;;;;;;20.13;94.74;100482.19;5074236;28;20045;-52
2022/06/24 04:08:55;;;;;;;5.72;2.50;;;;;;;20.13;95.18;100482.19;5064542;28;20048;-53
2022/06/24 04:11:43;;;;;;;4.32;2.47;;;;;;;20.09;93.45;100475.75;5061916;28;20047;-51
2022/06/24 04:17:36;;;;;;;3.15;2.10;;;;;;;20.01;95.11;100485.72;5067646;28;20400;-53
2022/06/24 04:20:24;;;;;;;3.65;2.15;;;;;;;19.94;94.00;100496.53;5054747;28;20045;-53
2022/06/24 04:23:11;;;;;;;3.33;2.30;;;;;;;19.88;95.11;100508.97;5060764;28;20037;-54
2022/06/24 04:25:59;;;;;;;3.35;2.20;;;;;;;19.89;96.01;100522.47;5074493;28;20055;-50
2022/06/24 04:28:48;;;;;;;3.88;2.40;;;;;;;19.98;95.72;100548.06;5074729;28;20044;-52
2022/06/24 04:31:36;;;;;;;4.90;2.30;;;;;;;20.05;95.67;100544.75;5075021;28;20499;-52
2022/06/24 04:34:23;;;;;;;4.68;2.90;;;;;;;20.09;95.51;100536.59;5073123;28;20045;-51
2022/06/24 04:37:11;;;;;;;4.70;2.50;;;;;;;20.08;95.15;100530.25;5068830;28;20037;-51
2022/06/24 04:39:59;;;;;;;4.38;2.60;;;;;;;20.07;95.57;100531.41;5074877;28;20053;-49
2022/06/24 04:42:47;;;;;;;6.00;2.50;;;;;;;20.09;95.69;100531.88;5075450;28;20040;-53
2022/06/24 04:45:35;;;;;;;5.63;2.90;;;;;;;20.13;95.85;100532.00;5070123;28;20048;-53
2022/06/24 04:48:22;;;;;;;5.07;2.67;;;;;;;20.15;95.50;100540.75;5072963;28;20131;-51
2022/06/24 04:51:12;;;;;;;4.15;2.58;;;;;;;20.13;95.86;100543.06;5072285;28;20526;-51
2022/06/24 04:54:00;;;;;;;3.97;2.38;;;;;;;20.16;96.41;100545.16;5058660;28;20044;-51
2022/06/24 04:56:47;;;;;;;5.53;2.80;;;;;;;20.13;96.13;100537.53;5061870;28;20044;-50
2022/06/24 04:59:35;;;;;;;6.03;2.75;;;;;;;20.11;96.41;100531.56;5059763;28;20052;-48
2022/06/24 05:02:23;;;;;;;5.88;2.50;;;;;;;20.08;96.55;100540.50;5072346;28;20036;-49
2022/06/24 05:05:11;;;;;;;6.50;2.88;;;;;;;20.08;96.75;100551.56;5071570;28;20048;-53
2022/06/24 05:07:59;;;;;;;5.95;2.83;;;;;;;20.09;96.99;100559.53;5071599;28;20044;-52
2022/06/24 05:10:47;;;;;;;7.75;2.95;;;;;;;20.10;97.04;100560.34;5057021;28;20048;-51
2022/06/24 05:13:25;;;;;;;8.90;3.10;;;;;;;20.11;97.42;100561.97;5073120;28;20045;-54
2022/06/24 05:16:13;;;;;;;4.32;2.80;;;;;;;20.09;96.54;100556.78;5063533;28;20033;-53
2022/06/24 05:19:20;;;;;;;5.43;2.90;;;;;;;20.08;96.32;100557.09;5051873;28;20048;-52
2022/06/24 05:22:08;;;;;;;3.58;2.47;;;;;;;20.12;95.84;100555.28;5073187;28;20071;-50
2022/06/24 05:24:55;;;;;;;4.15;2.63;;;;;;;20.16;95.83;100559.00;5073972;28;20052;-52
2022/06/24 05:27:43;;;;;;;4.53;2.85;;;;;;;20.17;96.42;100549.53;5060312;28;20483;-51
2022/06/24 05:30:31;;;;;;;4.10;2.60;;;;;;;20.19;95.77;100547.25;5056704;28;20041;-52
2022/06/24 05:33:18;;;;;;;7.57;2.95;;;;;;;20.20;95.52;100546.91;5073987;28;20044;-49
2022/06/24 05:36:06;;;;;;;5.00;2.50;;;;;;;20.22;95.80;100546.56;5070190;28;20059;-52
2022/06/24 05:38:54;;;;;;;5.75;2.60;;;;;;;20.23;97.27;100548.19;5056794;28;20039;-51
2022/06/24 05:41:43;;;;;;;6.03;2.95;;;;;;;20.22;96.81;100554.84;5072835;28;20049;-51
2022/06/24 05:44:30;;;;;;;7.05;3.28;;;;;;;20.19;97.57;100559.13;5069723;28;20033;-49
2022/06/24 05:47:18;;;;;;;7.00;3.05;;;;;;;20.19;96.25;100553.59;5065290;28;20044;-50
2022/06/24 05:50:06;;;;;;;5.35;3.22;;;;;;;20.16;97.10;100559.00;5052999;28;20051;-50
2022/06/24 05:56:01;;;;;;;5.75;3.15;;;;;;;20.16;97.42;100561.75;5072972;28;20032;-49
2022/06/24 05:58:48;;;;;;;10.70;4.03;;;;;;;20.05;97.75;100561.34;5067608;28;20120;-50
2022/06/24 06:01:36;;;;;;;7.00;3.20;;;;;;;19.92;98.87;100557.72;5072542;28;20503;-49
2022/06/24 06:04:23;;;;;;;7.13;3.80;;;;;;;19.84;100.00;100558.59;5072877;28;20049;-54
2022/06/24 06:07:11;;;;;;;8.93;3.70;;;;;;;19.82;100.00;100549.84;5063543;28;20048;-48
2022/06/24 06:09:59;;;;;;;5.93;3.05;;;;;;;19.83;100.00;100540.41;5073088;28;20052;-48
2022/06/24 06:12:46;;;;;;;8.35;3.72;;;;;;;19.92;100.00;100538.38;5065285;28;20128;-50
2022/06/24 06:15:34;;;;;;;5.40;3.63;;;;;;;19.96;100.00;100542.09;5067830;28;20435;-51
2022/06/24 06:18:21;;;;;;;5.43;3.22;;;;;;;20.02;99.98;100547.41;5069239;28;20045;-53
2022/06/24 06:21:11;;;;;;;7.88;3.90;;;;;;;20.08;99.42;100546.84;5072842;28;20490;-49
2022/06/24 06:23:58;;;;;;;5.10;3.35;;;;;;;20.15;98.73;100547.09;5060873;28;20457;-53
2022/06/24 06:26:48;;;;;;;5.95;3.20;;;;;;;20.21;97.42;100544.97;5067725;28;20040;-52
2022/06/24 06:29:35;;;;;;;5.75;3.50;;;;;;;20.24;97.53;100552.56;5073197;28;20041;-53
2022/06/24 06:32:23;;;;;;;8.30;3.10;;;;;;;20.27;96.80;100554.66;5067101;28;20052;-50
2022/06/24 06:35:08;;;;;;;6.30;3.33;;;;;;;20.29;97.30;100557.88;5050013;28;20041;-50
2022/06/24 06:37:56;;;;;;;7.72;3.97;;;;;;;20.29;97.21;100557.88;5072409;28;20074;-56
2022/06/24 06:40:44;;;;;;;6.80;3.45;;;;;;;20.29;96.60;100563.41;5072151;28;20507;-54
2022/06/24 06:43:32;;;;;;;8.60;4.28;;;;;;;20.28;97.38;100567.34;5058120;28;20047;-51
2022/06/24 06:46:19;;;;;;;6.72;3.53;;;;;;;20.27;97.46;100579.53;5072624;28;20048;-49
2022/06/24 06:49:07;;;;;;;6.20;3.88;;;;;;;20.26;97.90;100583.47;5073229;28;20472;-48
2022/06/24 06:51:38;;;;;;;7.45;3.92;;;;;;;20.23;97.54;100592.47;5070215;28;20049;-51
2022/06/24 06:54:26;;;;;;;7.53;3.97;;;;;;;20.24;97.32;100596.84;5059816;28;20229;-50
2022/06/24 06:57:13;;;;;;;5.75;3.97;;;;;;;20.25;97.32;100595.66;5072725;28;20044;-48
2022/06/24 06:59:42;;;;;;;6.93;4.00;;;;;;;20.25;97.60;100590.13;5035281;28;20479;-49
2022/06/24 07:02:29;;;;;;;5.15;3.42;;;;;;;20.26;97.15;100591.78;5061517;28;20049;-49
2022/06/24 07:05:18;;;;;;;5.80;3.67;;;;;;;20.29;95.23;100595.81;5063584;28;20049;-50
2022/06/24 07:08:05;;;;;;;9.85;4.32;;;;;;;20.25;97.22;100589.34;5056411;28;20051;-48
2022/06/24 07:10:53;;;;;;;6.50;4.10;;;;;;;20.20;97.99;100579.28;5070857;28;20476;-49
2022/06/24 07:13:40;;;;;;;6.97;4.30;;;;;;;20.17;98.04;100583.53;5060592;28;20044;-48
2022/06/24 07:16:28;;;;;;;6.93;4.30;;;;;;;20.14;98.88;100581.47;5055632;28;20051;-50
2022/06/24 07:19:16;;;;;;;8.32;4.88;;;;;;;20.14;99.10;100577.88;5085673;28;20151;-50
2022/06/24 07:22:04;;;;;;;17.00;5.28;;;;;;;20.11;98.99;100573.03;5085623;28;20045;-51
2022/06/24 07:24:51;;;;;;;33.35;9.73;;;;;;;20.12;99.07;100574.66;5064747;28;20430;-49
2022/06/24 07:27:39;;;;;;;11.15;5.43;;;;;;;20.13;99.15;100581.78;5059394;28;20087;-50
2022/06/24 07:30:27;;;;;;;7.85;3.90;;;;;;;20.13;99.84;100571.56;5091148;28;20505;-53
2022/06/24 07:33:15;;;;;;;8.70;4.93;;;;;;;20.08;100.00;100568.16;5089192;28;20406;-49
2022/06/24 07:36:02;;;;;;;10.35;4.70;;;;;;;20.07;100.00;100569.31;5075471;28;20047;-50
2022/06/24 07:38:50;;;;;;;7.18;4.25;;;;;;;20.07;100.00;100556.31;5096473;28;20071;-51
2022/06/24 07:41:37;;;;;;;9.35;4.75;;;;;;;20.10;100.00;100543.75;5090980;28;20044;-52
2022/06/24 07:44:25;;;;;;;6.68;4.10;;;;;;;20.06;100.00;100548.31;5095974;28;20517;-50
2022/06/24 07:47:13;;;;;;;7.25;4.03;;;;;;;20.05;100.00;100543.97;5087437;28;20521;-52
2022/06/24 07:50:02;;;;;;;8.10;4.60;;;;;;;20.05;100.00;100538.44;5086759;28;20048;-51
2022/06/24 07:52:49;;;;;;;8.38;3.88;;;;;;;20.06;100.00;100537.25;5071351;28;20036;-54
2022/06/24 07:58:51;;;;;;;14.27;4.97;;;;;;;20.07;100.00;100552.72;5066029;28;20056;-50
2022/06/24 08:01:39;;;;;;;8.20;3.90;;;;;;;20.08;100.00;100551.56;5058900;28;20076;-50
2022/06/24 08:04:30;;;;;;;7.25;3.75;;;;;;;20.08;100.00;100562.63;5068524;28;20059;-49
2022/06/24 08:07:18;;;;;;;6.35;3.88;;;;;;;20.13;100.00;100567.97;5075476;28;20091;-49
2022/06/24 08:10:06;;;;;;;7.43;4.05;;;;;;;20.17;100.00;100560.59;5075851;28;20496;-51
2022/06/24 08:12:53;;;;;;;4.15;3.35;;;;;;;20.22;100.00;100558.44;5073569;28;20032;-50
2022/06/24 08:15:41;;;;;;;5.18;3.67;;;;;;;20.28;100.00;100556.28;5074709;28;20040;-50
2022/06/24 08:18:29;;;;;;;7.18;3.67;;;;;;;20.31;100.00;100555.59;5070751;28;20044;-48
2022/06/24 08:21:16;;;;;;;5.78;3.67;;;;;;;20.35;100.00;100562.06;5075773;28;20055;-48
2022/06/24 08:24:05;;;;;;;6.00;3.30;;;;;;;20.38;100.00;100566.91;5074374;28;20040;-49
2022/06/24 08:26:52;;;;;;;5.53;3.28;;;;;;;20.40;100.00;100561.06;5065541;28;20051;-49
2022/06/24 08:29:40;;;;;;;4.55;3.15;;;;;;;20.40;100.00;100563.81;5070798;28;20045;-49
2022/06/24 08:32:28;;;;;;;6.25;3.15;;;;;;;20.37;100.00;100570.84;5075877;28;20083;-51
2022/06/24 08:35:16;;;;;;;6.43;3.90;;;;;;;20.36;100.00;100563.69;5075504;28;20095;-50
2022/06/24 08:38:16;;;;;;;6.40;3.90;;;;;;;20.34;100.00;100565.97;5065110;28;20051;-49
2022/06/24 08:41:04;;;;;;;6.93;3.97;;;;;;;20.34;100.00;100565.97;5063671;28;20040;-50
2022/06/24 08:43:53;;;;;;;6.32;4.22;;;;;;;20.35;100.00;100567.59;5060107;28;20036;-49
2022/06/24 08:46:41;;;;;;;6.38;4.03;;;;;;;20.38;100.00;100575.22;5070157;28;20048;-49
2022/06/24 08:49:30;;;;;;;7.55;4.70;;;;;;;20.40;100.00;100574.88;5063575;28;20466;-49
2022/06/24 08:52:20;;;;;;;9.40;5.15;;;;;;;20.42;100.00;100576.16;5059752;28;20462;-51
2022/06/24 08:55:08;;;;;;;9.45;4.65;;;;;;;20.43;96.81;100575.00;5074846;28;20486;-50
2022/06/24 08:57:56;;;;;;;10.00;5.30;;;;;;;20.46;96.63;100569.94;5072258;28;20047;-53
2022/06/24 09:00:44;;;;;;;8.68;5.93;;;;;;;20.44;99.13;100564.72;5077029;28;20055;-52
2022/06/24 09:03:32;;;;;;;5.60;3.53;;;;;;;20.43;96.86;100550.09;5069670;28;20059;-51
2022/06/24 09:06:20;;;;;;;7.38;4.78;;;;;;;20.51;95.72;100558.66;5074245;28;20071;-50
2022/06/24 09:09:08;;;;;;;8.10;5.60;;;;;;;20.54;97.16;100552.41;5069855;28;20494;-51
2022/06/24 09:11:58;;;;;;;8.38;5.53;;;;;;;20.53;97.00;100550.81;5067201;28;20055;-52
2022/06/24 09:14:48;;;;;;;9.45;6.63;;;;;;;20.52;98.41;100551.97;5074890;28;20048;-50
2022/06/24 09:17:32;;;;;;;13.27;8.30;;;;;;;20.54;99.98;100544.13;5074617;28;20487;-51
2022/06/24 09:20:25;;;;;;;10.20;6.70;;;;;;;20.53;100.00;100550.81;5067203;28;20052;-50
2022/06/24 09:23:16;;;;;;;8.60;5.45;;;;;;;20.57;98.95;100551.78;5071011;28;20131;-55
2022/06/24 09:26:03;;;;;;;9.30;6.22;;;;;;;20.62;100.00;100554.34;5074211;28;20037;-50
2022/06/24 09:28:56;;;;;;;14.23;11.10;;;;;;;20.67;100.00;100550.53;5070158;28;20483;-53
2022/06/24 09:31:43;;;;;;;11.90;9.18;;;;;;;20.71;100.00;100549.50;5092031;28;20048;-52
2022/06/24 09:34:31;;;;;;;12.70;9.45;;;;;;;20.73;100.00;100552.72;5094409;28;20072;-51
2022/06/24 09:37:36;;;;;;;10.82;9.05;;;;;;;20.77;100.00;100553.66;5092847;28;20052;-49
2022/06/24 09:40:24;;;;;;;16.43;12.80;;;;;;;20.78;100.00;100558.06;5067351;28;20040;-52
2022/06/24 09:43:13;;;;;;;17.27;14.18;;;;;;;20.80;100.00;100557.69;5075384;28;20055;-49
2022/06/24 09:46:01;;;;;;;17.65;14.10;;;;;;;20.74;100.00;100562.66;5093956;28;20044;-51
2022/06/24 09:48:57;;;;;;;16.33;12.70;;;;;;;20.74;98.73;100570.97;5085872;28;20127;-51
2022/06/24 09:51:45;;;;;;;16.25;11.80;;;;;;;20.70;97.54;100561.72;5088045;28;20044;-49
2022/06/24 09:54:33;;;;;;;14.65;11.07;;;;;;;20.73;97.90;100563.00;5094086;28;20586;-52
2022/06/24 09:57:20;;;;;;;15.50;11.30;;;;;;;20.78;98.24;100562.75;5074293;28;20056;-49
2022/06/24 10:03:16;;;;;;;14.18;9.43;;;;;;;20.99;96.32;100560.72;5058292;28;20487;-50
2022/06/24 10:06:09;;;;;;;13.27;9.15;;;;;;;21.06;95.44;100557.38;5071426;28;20491;-50
2022/06/24 10:08:57;;;;;;;9.77;6.82;;;;;;;21.15;93.79;100560.84;5070024;28;20052;-51
2022/06/24 10:11:57;;;;;;;12.07;7.20;;;;;;;21.21;92.31;100558.66;5072925;28;20044;-50
2022/06/24 10:14:45;;;;;;;9.20;5.28;;;;;;;21.27;90.10;100563.63;5056515;28;20074;-54
2022/06/24 10:17:34;;;;;;;7.70;4.80;;;;;;;21.34;88.38;100549.19;5073852;28;20045;-51
2022/06/24 10:20:23;;;;;;;11.02;6.15;;;;;;;21.41;89.32;100549.44;5049994;28;21545;-47
2022/06/24 10:23:40;;;;;;;12.57;6.78;;;;;;;21.44;88.60;100553.47;5058171;28;20049;-51
2022/06/24 10:26:30;;;;;;;8.20;5.20;;;;;;;21.46;87.73;100548.41;5085116;28;20055;-53
2022/06/24 10:29:20;;;;;;;7.13;4.80;;;;;;;21.52;87.59;100544.22;5069490;28;20098;-53
2022/06/24 10:31:54;;;;;;;9.57;5.63;;;;;;;21.59;86.04;100551.97;5073817;28;20127;-51
2022/06/24 10:34:42;;;;;;;8.73;4.93;;;;;;;21.62;85.03;100549.31;5074426;28;20071;-56
2022/06/24 10:37:30;;;;;;;4.95;2.97;;;;;;;21.65;83.72;100534.72;5073504;28;20051;-55
2022/06/24 10:40:24;;;;;;;9.32;6.07;;;;;;;21.64;85.45;100546.97;5071440;28;20041;-52
2022/06/24 10:43:12;;;;;;;9.73;5.03;;;;;;;21.64;85.79;100549.75;5093798;28;20044;-50
2022/06/24 10:46:12;;;;;;;10.30;5.25;;;;;;;21.64;85.37;100549.75;5093588;28;20131;-49
2022/06/24 10:49:00;;;;;;;9.98;6.40;;;;;;;21.59;85.65;100549.19;5092449;28;20473;-54
2022/06/24 10:51:47;;;;;;;7.13;4.22;;;;;;;21.55;85.69;100560.19;5061638;28;20053;-49
2022/06/24 10:54:35;;;;;;;4.18;2.83;;;;;;;21.56;84.14;100570.09;5066194;28;20055;-50
2022/06/24 10:57:25;;;;;;;8.57;5.93;;;;;;;21.52;87.52;100569.16;5089996;28;20050;-53
2022/06/24 11:00:14;;;;;;;10.95;6.95;;;;;;;21.45;87.61;100580.03;5083080;28;20040;-52
2022/06/24 11:03:04;;;;;;;15.32;9.85;;;;;;;21.38;88.62;100588.94;5057804;28;20047;-53
2022/06/24 11:05:52;;;;;;;10.80;8.13;;;;;;;21.04;90.78;100590.97;5072963;28;20518;-48
2022/06/24 11:08:40;;;;;;;9.63;6.40;;;;;;;20.85;90.58;100597.06;5070763;28;20052;-47
2022/06/24 11:11:31;;;;;;;8.60;4.82;;;;;;;20.70;90.71;100600.47;5050463;28;20052;-49
2022/06/24 11:14:26;;;;;;;6.18;3.80;;;;;;;20.68;91.02;100607.50;5078950;28;20123;-50
2022/06/24 11:17:13;;;;;;;5.77;3.50;;;;;;;20.64;93.28;100610.16;5057701;28;20048;-53
2022/06/24 11:20:01;;;;;;;5.57;3.55;;;;;;;20.60;93.13;100612.78;5065667;28;20045;-47
2022/06/24 11:22:49;;;;;;;7.45;3.95;;;;;;;20.55;94.46;100598.34;5068050;28;20479;-45
2022/06/24 11:25:39;;;;;;;6.25;3.70;;;;;;;20.49;95.39;100591.38;5060190;28;20491;-50
2022/06/24 11:28:35;;;;;;;8.27;3.53;;;;;;;20.51;94.65;100586.31;5069256;28;20052;-51
2022/06/24 11:31:30;;;;;;;6.35;3.75;;;;;;;20.53;94.92;100573.75;5044781;28;20048;-52
2022/06/24 11:34:18;;;;;;;7.93;4.47;;;;;;;20.51;96.04;100578.03;5067701;28;20110;-51
2022/06/24 11:37:06;;;;;;;7.18;4.13;;;;;;;20.50;95.97;100577.22;5093298;28;20044;-51
2022/06/24 11:39:54;;;;;;;7.50;4.40;;;;;;;20.51;96.72;100569.72;5089977;28;20063;-50
2022/06/24 11:42:45;;;;;;;11.00;4.70;;;;;;;20.57;96.14;100569.19;5085130;28;20040;-50
2022/06/24 11:45:47;;;;;;;9.32;4.30;;;;;;;20.59;95.88;100561.38;5079618;28;20044;-48
2022/06/24 11:48:35;;;;;;;6.20;3.92;;;;;;;20.67;95.62;100567.94;5066668;28;20048;-48
2022/06/24 11:51:23;;;;;;;7.75;4.53;;;;;;;20.78;94.62;100547.00;5079299;28;20051;-48
2022/06/24 11:54:11;;;;;;;7.20;4.60;;;;;;;20.82;94.31;100547.91;5083841;28;20049;-47
2022/06/24 11:56:59;;;;;;;8.27;4.07;;;;;;;20.83;94.73;100549.53;5053002;28;20101;-52
2022/06/24 11:59:47;;;;;;;8.55;4.78;;;;;;;20.91;95.29;100556.09;5086318;28;20144;-48
2022/06/24 12:02:35;;;;;;;8.75;4.60;;;;;;;21.00;94.48;100554.03;5071523;28;20479;-46
2022/06/24 12:05:28;;;;;;;5.90;3.95;;;;;;;21.15;90.99;100557.28;5059950;28;20534;-48
2022/06/24 12:08:17;;;;;;;6.95;3.92;;;;;;;21.24;92.19;100558.78;5044518;28;20055;-47
2022/06/24 12:11:14;;;;;;;6.47;3.45;;;;;;;21.37;90.50;100569.84;5068950;28;20040;-49
2022/06/24 12:14:03;;;;;;;5.00;3.17;;;;;;;21.40;90.62;100567.22;5071688;28;20516;-51
2022/06/24 12:17:00;;;;;;;6.53;3.25;;;;;;;21.43;89.97;100560.16;5074783;28;20040;-51
2022/06/24 12:20:01;;;;;;;4.13;2.95;;;;;;;21.44;88.85;100556.25;5067288;28;20384;-51
2022/06/24 12:23:14;;;;;;;3.72;2.70;;;;;;;21.53;87.02;100553.34;5061072;28;20052;-49
2022/06/24 12:26:15;;;;;;;2.80;2.20;;;;;;;21.64;84.80;100558.06;5051418;28;20048;-49
2022/06/24 12:29:05;;;;;;;3.78;1.90;;;;;;;21.69;82.17;100551.47;5063941;28;20066;-51
2022/06/24 12:31:52;;;;;;;2.47;2.28;;;;;;;21.79;82.93;100544.63;5071357;28;20436;-48
2022/06/24 12:34:41;;;;;;;1.98;1.75;;;;;;;21.89;81.62;100550.50;5075118;28;20048;-50
2022/06/24 12:37:29;;;;;;;3.35;2.22;;;;;;;21.92;79.31;100549.00;5072746;28;20040;-50
2022/06/24 12:40:23;;;;;;;3.03;2.00;;;;;;;21.95;78.41;100556.59;4365423;28;10000678;-49
2022/06/24 12:43:13;;;;;;;2.20;1.17;;;;;;;22.01;75.66;100552.44;5072173;28;20109;-49
2022/06/24 12:46:04;;;;;;;1.23;1.20;;;;;;;22.00;73.57;100561.91;5069113;28;20048;-53
2022/06/24 12:51:53;;;;;;;2.72;1.50;;;;;;;22.02;73.68;100554.03;5066226;28;20139;-52
2022/06/24 12:54:41;;;;;;;3.90;2.28;;;;;;;22.06;74.45;100554.16;5069219;28;20056;-53
2022/06/24 12:57:44;;;;;;;2.42;2.10;;;;;;;22.12;73.71;100544.41;5063251;28;20036;-49
2022/06/24 13:00:32;;;;;;;3.15;1.92;;;;;;;22.14;73.28;100539.31;5063588;28;20048;-51
2022/06/24 13:03:21;;;;;;;1.75;1.65;;;;;;;22.19;71.39;100547.38;5057307;28;20044;-49
2022/06/24 13:06:09;;;;;;;2.10;1.77;;;;;;;22.17;71.36;100549.69;5071289;28;20048;-47
2022/06/24 13:08:56;;;;;;;3.10;1.30;;;;;;;22.20;72.15;100548.19;5070927;28;20048;-51
2022/06/24 13:11:44;;;;;;;1.40;1.30;;;;;;;22.23;72.89;100553.88;5069126;28;20036;-49
2022/06/24 13:14:31;;;;;;;1.67;1.50;;;;;;;22.27;73.04;100553.97;5056856;28;20040;-46
2022/06/24 13:17:19;;;;;;;2.85;1.80;;;;;;;22.29;71.83;100555.22;5083886;28;20060;-51
2022/06/24 13:20:09;;;;;;;1.85;1.70;;;;;;;22.30;70.84;100558.81;5078868;28;20721;-52